METAR AND TAF INFORMATION
METAR FOR UAII
ADDS - METARS form results

(0317 UTC 04 August 2021)
Data provider http://aviationweather.gov/metar/data/
 
METAR text: UAII 040300Z 07002MPS 010V120 CAVOK 30/05 Q1007 R10/0///70 NOSIG RMK QFE720/0960
Conditions at: UAII (CIMKENT , KZ) observed 0300 UTC 04 August 2021
Temperature: 30.0°C (86°F)
Dewpoint: 5.0°C (41°F) [RH = 21%]
Pressure (altimeter): 29.73 inches Hg (1007.0 mb)
Winds: from the ENE (70 degrees) at 5 MPH (4 knots; 2.1 m/s)
Visibility: 6 or more miles (10+ km)
Ceiling: ceiling and visibility are OK
Clouds: unknown
Weather: no significant weather observed at this time

METAR text: UAII 040230Z VRB01MPS CAVOK 28/06 Q1007 R10/0///70 NOSIG RMK QFE720/0960
Conditions at: UAII (CIMKENT , KZ) observed 0230 UTC 04 August 2021
Temperature: 28.0°C (82°F)
Dewpoint: 6.0°C (43°F) [RH = 25%]
Pressure (altimeter): 29.73 inches Hg (1007.0 mb)
Winds: variable direction winds at 2 MPH (2 knots; 1.0 m/s)
Visibility: 6 or more miles (10+ km)
Ceiling: ceiling and visibility are OK
Clouds: unknown
Weather: no significant weather observed at this time

Forecast for: UAII (CIMKENT , KZ)
Text: TAF UAII 032300Z 0400/0424 04003G08MPS 7000 NSC TX40/0410Z TN22/0401Z
Forecast period: 0000 UTC 04 August 2021 to 0000 UTC 05 August 2021
Forecast type: FROM: standard forecast or significant change
Winds: from the NE (40 degrees) at 7 MPH (6 knots; 3.1 m/s)
gusting to 18 MPH (16 knots; 8.2 m/s)
Visibility: 4 miles (7 km)
Ceiling: unknown
Clouds: missing
Weather: no significant weather forecast for this period
Text: TEMPO 0400/0404 10004MPS
Forecast period: 0000 to 0400 UTC 04 August 2021
Forecast type: TEMPORARY: The following changes expected for less than half the time period
Winds: from the E (100 degrees) at 9 MPH (8 knots; 4.1 m/s)
Visibility: missing
Ceiling: unknown
Clouds: missing
Weather: no significant weather forecast for this period
Text: TEMPO 0405/0416 35005G12MPS
Forecast period: 0500 to 1600 UTC 04 August 2021
Forecast type: TEMPORARY: The following changes expected for less than half the time period
Winds: from the N (350 degrees) at 12 MPH (10 knots; 5.1 m/s)
gusting to 26 MPH (23 knots; 11.8 m/s)
Visibility: missing
Ceiling: unknown
Clouds: missing
Weather: no significant weather forecast for this period

 AIRPORT MAP

 RUNWAY INFORMATION

 AIRPORT FREQUENCIES
Type TWR Name TWR Frequency 118.7 MHZ

 AIRPORT NEAR NAVIGATION AIDS
Type NDB Name Shymkent Frequency 360 KHZ
Type NDB Name Shymkent Frequency 360 KHZ



2018 Air Astana Virtual Airline